Time,TemperatureF,DewpointF,PressureIn,WindDirection,WindDirectionDegrees,WindSpeedMPH,WindSpeedGustMPH,Humidity,HourlyPrecipIn,Conditions,Clouds,dailyrainin,SolarRadiationWatts/m^2,SoftwareType,DateUTC
2013-02-20 00:01:00,71.0,59.0,30.05,ENE,78,5.0,6.0,66,0.00,,,0.00,0.000000,,2013-02-20 10:01:00,
2013-02-20 00:12:00,71.0,59.0,30.05,ENE,78,5.0,6.0,66,0.00,,,0.00,0.000000,,2013-02-20 10:12:00,
2013-02-20 00:42:00,68.0,58.0,30.04,ENE,75,1.0,7.0,70,0.00,,,0.00,0.000000,,2013-02-20 10:42:00,
2013-02-20 00:52:00,68.0,58.0,30.04,ENE,75,1.0,7.0,70,0.00,,,0.00,0.000000,,2013-02-20 10:52:00,
2013-02-20 01:02:00,68.0,58.0,30.04,ENE,75,1.0,7.0,70,0.00,,,0.00,0.000000,,2013-02-20 11:02:00,
2013-02-20 01:11:00,68.0,58.0,30.04,ENE,75,1.0,7.0,70,0.00,,,0.00,0.000000,,2013-02-20 11:11:00,
2013-02-20 01:42:00,69.0,59.0,30.03,ESE,111,2.0,7.0,70,0.00,,,0.00,0.000000,,2013-02-20 11:42:00,
2013-02-20 01:52:00,69.0,59.0,30.03,ESE,111,2.0,7.0,70,0.00,,,0.00,0.000000,,2013-02-20 11:52:00,
2013-02-20 02:01:00,69.0,59.0,30.03,ESE,111,2.0,7.0,70,0.00,,,0.00,0.000000,,2013-02-20 12:01:00,
2013-02-20 02:11:00,69.0,59.0,30.03,ESE,111,2.0,7.0,70,0.00,,,0.00,0.000000,,2013-02-20 12:11:00,
2013-02-20 02:42:00,67.0,56.0,30.00,NE,51,4.0,6.0,68,0.00,,,0.00,0.000000,,2013-02-20 12:42:00,
2013-02-20 02:53:00,67.0,56.0,30.00,NE,51,4.0,6.0,68,0.00,,,0.00,0.000000,,2013-02-20 12:53:00,
2013-02-20 03:01:00,67.0,56.0,30.00,NE,51,4.0,6.0,68,0.00,,,0.00,0.000000,,2013-02-20 13:01:00,
2013-02-20 03:11:00,67.0,56.0,30.00,NE,51,4.0,6.0,68,0.00,,,0.00,0.000000,,2013-02-20 13:11:00,
2013-02-20 03:42:00,67.0,55.0,29.99,NE,41,5.0,8.0,65,0.00,,,0.00,0.000000,,2013-02-20 13:42:00,
2013-02-20 03:52:00,67.0,55.0,29.99,NE,41,5.0,8.0,65,0.00,,,0.00,0.000000,,2013-02-20 13:52:00,
2013-02-20 04:01:00,67.0,55.0,29.99,NE,41,5.0,8.0,65,0.00,,,0.00,0.000000,,2013-02-20 14:01:00,
2013-02-20 04:11:00,67.0,55.0,29.99,NE,41,5.0,8.0,65,0.00,,,0.00,0.000000,,2013-02-20 14:11:00,
2013-02-20 04:42:00,64.0,54.0,29.99,SE,137,2.0,6.0,70,0.00,,,0.00,0.000000,,2013-02-20 14:42:00,
2013-02-20 04:52:00,64.0,54.0,29.99,SE,137,2.0,6.0,70,0.00,,,0.00,0.000000,,2013-02-20 14:52:00,
2013-02-20 05:01:00,64.0,54.0,29.99,SE,137,2.0,6.0,70,0.00,,,0.00,0.000000,,2013-02-20 15:01:00,
2013-02-20 05:11:00,64.0,54.0,29.99,SE,137,2.0,6.0,70,0.00,,,0.00,0.000000,,2013-02-20 15:11:00,
2013-02-20 05:42:00,65.0,54.0,30.00,ESE,111,5.0,7.0,68,0.00,,,0.00,0.000000,,2013-02-20 15:42:00,
2013-02-20 05:52:00,65.0,54.0,30.00,ESE,111,5.0,7.0,68,0.00,,,0.00,0.000000,,2013-02-20 15:52:00,
2013-02-20 06:01:00,65.0,54.0,30.00,ESE,111,5.0,7.0,68,0.00,,,0.00,0.000000,,2013-02-20 16:01:00,
2013-02-20 06:11:00,65.0,54.0,30.00,ESE,111,5.0,7.0,68,0.00,,,0.00,0.000000,,2013-02-20 16:11:00,
2013-02-20 06:42:00,64.0,54.0,30.01,ESE,115,4.0,6.0,71,0.00,,,0.00,0.000000,,2013-02-20 16:42:00,
2013-02-20 06:52:00,64.0,54.0,30.01,ESE,115,4.0,6.0,71,0.00,,,0.00,0.000000,,2013-02-20 16:52:00,
2013-02-20 07:01:00,64.0,54.0,30.01,ESE,115,4.0,6.0,71,0.00,,,0.00,0.000000,,2013-02-20 17:01:00,
2013-02-20 07:11:00,64.0,54.0,30.01,ESE,115,4.0,6.0,71,0.00,,,0.00,0.000000,,2013-02-20 17:11:00,
2013-02-20 07:42:00,65.0,56.0,30.04,ESE,114,4.0,6.0,73,0.00,,,0.00,5.000000,,2013-02-20 17:42:00,
2013-02-20 07:52:00,65.0,56.0,30.04,ESE,114,4.0,6.0,73,0.00,,,0.00,5.000000,,2013-02-20 17:52:00,
2013-02-20 08:02:00,65.0,56.0,30.04,ESE,114,4.0,6.0,73,0.00,,,0.00,5.000000,,2013-02-20 18:02:00,
2013-02-20 08:11:00,65.0,56.0,30.04,ESE,114,4.0,6.0,73,0.00,,,0.00,5.000000,,2013-02-20 18:11:00,
2013-02-20 08:42:00,76.0,60.0,30.07,East,96,5.0,9.0,57,0.00,,,0.00,132.000000,,2013-02-20 18:42:00,
2013-02-20 08:52:00,76.0,60.0,30.07,East,96,5.0,9.0,57,0.00,,,0.00,132.000000,,2013-02-20 18:52:00,
2013-02-20 09:01:00,76.0,60.0,30.07,East,96,5.0,9.0,57,0.00,,,0.00,132.000000,,2013-02-20 19:01:00,
2013-02-20 09:11:00,76.0,60.0,30.07,East,96,5.0,9.0,57,0.00,,,0.00,132.000000,,2013-02-20 19:11:00,
2013-02-20 09:32:00,78.0,64.0,30.08,SSE,167,6.0,9.0,62,0.00,,,0.00,385.000000,,2013-02-20 19:32:00,
2013-02-20 09:42:00,78.0,64.0,30.08,SSE,167,6.0,9.0,62,0.00,,,0.00,385.000000,,2013-02-20 19:42:00,
2013-02-20 09:52:00,78.0,64.0,30.08,SSE,167,6.0,9.0,62,0.00,,,0.00,385.000000,,2013-02-20 19:52:00,
2013-02-20 10:01:00,78.0,64.0,30.08,SSE,167,6.0,9.0,62,0.00,,,0.00,385.000000,,2013-02-20 20:01:00,
2013-02-20 10:11:00,78.0,64.0,30.08,SSE,167,6.0,9.0,62,0.00,,,0.00,385.000000,,2013-02-20 20:11:00,
2013-02-20 10:41:00,80.0,64.0,30.08,SSE,149,5.0,10.0,58,0.00,,,0.00,640.000000,,2013-02-20 20:41:00,
2013-02-20 10:51:00,80.0,64.0,30.08,SSE,149,5.0,10.0,58,0.00,,,0.00,640.000000,,2013-02-20 20:51:00,
2013-02-20 11:01:00,80.0,64.0,30.08,SSE,149,5.0,10.0,58,0.00,,,0.00,640.000000,,2013-02-20 21:01:00,
2013-02-20 11:11:00,80.0,64.0,30.08,SSE,149,5.0,10.0,58,0.00,,,0.00,640.000000,,2013-02-20 21:11:00,
2013-02-20 12:43:00,82.0,65.0,30.05,SSW,206,8.0,12.0,57,-99.99,,,0.00,652.000000,,2013-02-20 22:43:00,
2013-02-20 12:51:00,82.0,65.0,30.05,SSW,206,8.0,12.0,57,-99.99,,,0.00,652.000000,,2013-02-20 22:51:00,
2013-02-20 13:01:00,82.0,65.0,30.05,SSW,206,8.0,12.0,57,-99.99,,,0.00,652.000000,,2013-02-20 23:01:00,
2013-02-20 13:12:00,82.0,65.0,30.05,SSW,206,8.0,12.0,57,-99.99,,,0.00,652.000000,,2013-02-20 23:12:00,
2013-02-20 13:42:00,80.0,64.0,30.03,SW,225,8.0,12.0,59,0.00,,,0.00,574.000000,,2013-02-20 23:42:00,
2013-02-20 13:52:00,80.0,64.0,30.03,SW,225,8.0,12.0,59,0.00,,,0.00,574.000000,,2013-02-20 23:52:00,
2013-02-20 14:02:00,80.0,64.0,30.03,SW,225,8.0,12.0,59,0.00,,,0.00,574.000000,,2013-02-21 00:02:00,
2013-02-20 14:11:00,80.0,64.0,30.03,SW,225,8.0,12.0,59,0.00,,,0.00,574.000000,,2013-02-21 00:11:00,
2013-02-20 14:32:00,81.0,64.0,30.01,SW,233,8.0,12.0,57,0.00,,,0.00,654.000000,,2013-02-21 00:32:00,
2013-02-20 14:42:00,81.0,64.0,30.01,SW,233,8.0,12.0,57,0.00,,,0.00,654.000000,,2013-02-21 00:42:00,
2013-02-20 14:52:00,81.0,64.0,30.01,SW,233,8.0,12.0,57,0.00,,,0.00,654.000000,,2013-02-21 00:52:00,
2013-02-20 15:01:00,81.0,64.0,30.01,SW,233,8.0,12.0,57,0.00,,,0.00,654.000000,,2013-02-21 01:01:00,
2013-02-20 15:11:00,81.0,64.0,30.01,SW,233,8.0,12.0,57,0.00,,,0.00,654.000000,,2013-02-21 01:11:00,
2013-02-20 15:42:00,82.0,63.0,29.99,SSW,193,7.0,12.0,53,0.00,,,0.00,875.000000,,2013-02-21 01:42:00,
2013-02-20 15:52:00,82.0,63.0,29.99,SSW,193,7.0,12.0,53,0.00,,,0.00,875.000000,,2013-02-21 01:52:00,
2013-02-20 16:01:00,82.0,63.0,29.99,SSW,193,7.0,12.0,53,0.00,,,0.00,875.000000,,2013-02-21 02:01:00,
2013-02-20 16:11:00,82.0,63.0,29.99,SSW,193,7.0,12.0,53,0.00,,,0.00,875.000000,,2013-02-21 02:11:00,
2013-02-20 17:01:00,82.0,64.0,30.00,South,179,7.0,14.0,54,0.00,,,0.00,732.000000,,2013-02-21 03:01:00,
2013-02-20 17:11:00,82.0,64.0,30.00,South,179,7.0,14.0,54,0.00,,,0.00,732.000000,,2013-02-21 03:11:00,
2013-02-20 17:42:00,79.0,64.0,30.00,South,184,8.0,13.0,60,0.00,,,0.00,432.000000,,2013-02-21 03:42:00,
2013-02-20 17:52:00,79.0,64.0,30.00,South,184,8.0,13.0,60,0.00,,,0.00,432.000000,,2013-02-21 03:52:00,
2013-02-20 18:01:00,79.0,64.0,30.00,South,184,8.0,13.0,60,0.00,,,0.00,432.000000,,2013-02-21 04:01:00,
2013-02-20 18:11:00,79.0,64.0,30.00,South,184,8.0,13.0,60,0.00,,,0.00,432.000000,,2013-02-21 04:11:00,
2013-02-20 18:32:00,77.0,65.0,30.02,SSE,166,5.0,11.0,66,0.00,,,0.00,153.000000,,2013-02-21 04:32:00,
2013-02-20 18:42:00,77.0,65.0,30.02,SSE,166,5.0,11.0,66,0.00,,,0.00,153.000000,,2013-02-21 04:42:00,
2013-02-20 18:52:00,77.0,65.0,30.02,SSE,166,5.0,11.0,66,0.00,,,0.00,153.000000,,2013-02-21 04:52:00,
2013-02-20 19:02:00,77.0,65.0,30.02,SSE,166,5.0,11.0,66,0.00,,,0.00,153.000000,,2013-02-21 05:02:00,
2013-02-20 19:12:00,77.0,65.0,30.02,SSE,166,5.0,11.0,66,0.00,,,0.00,153.000000,,2013-02-21 05:12:00,
2013-02-20 19:37:00,75.0,64.0,30.04,South,169,3.0,9.0,69,0.00,,,0.00,4.000000,,2013-02-21 05:37:00,
2013-02-20 19:46:00,75.0,64.0,30.04,South,169,3.0,9.0,69,0.00,,,0.00,4.000000,,2013-02-21 05:46:00,
2013-02-20 19:58:00,75.0,64.0,30.04,South,169,3.0,9.0,69,0.00,,,0.00,4.000000,,2013-02-21 05:58:00,
2013-02-20 20:11:00,75.0,64.0,30.04,South,169,3.0,9.0,69,0.00,,,0.00,4.000000,,2013-02-21 06:11:00,
2013-02-20 20:31:00,75.0,65.0,30.05,SSE,160,4.0,7.0,72,0.00,,,0.00,0.000000,,2013-02-21 06:31:00,
2013-02-20 20:41:00,75.0,65.0,30.05,SSE,160,4.0,7.0,72,0.00,,,0.00,0.000000,,2013-02-21 06:41:00,
2013-02-20 20:51:00,75.0,65.0,30.05,SSE,160,4.0,7.0,72,0.00,,,0.00,0.000000,,2013-02-21 06:51:00,
2013-02-20 21:01:00,75.0,65.0,30.05,SSE,160,4.0,7.0,72,0.00,,,0.00,0.000000,,2013-02-21 07:01:00,
2013-02-20 21:11:00,75.0,65.0,30.05,SSE,160,4.0,7.0,72,0.00,,,0.00,0.000000,,2013-02-21 07:11:00,
2013-02-20 21:32:00,74.0,65.0,30.07,East,88,1.0,6.0,74,0.00,,,0.00,0.000000,,2013-02-21 07:32:00,
2013-02-20 21:42:00,74.0,65.0,30.07,East,88,1.0,6.0,74,0.00,,,0.00,0.000000,,2013-02-21 07:42:00,
2013-02-20 21:52:00,74.0,65.0,30.07,East,88,1.0,6.0,74,0.00,,,0.00,0.000000,,2013-02-21 07:52:00,
2013-02-20 22:01:00,74.0,65.0,30.07,East,88,1.0,6.0,74,0.00,,,0.00,0.000000,,2013-02-21 08:01:00,
2013-02-20 22:11:00,74.0,65.0,30.07,East,88,1.0,6.0,74,0.00,,,0.00,0.000000,,2013-02-21 08:11:00,
2013-02-20 22:42:00,71.0,62.0,30.07,ENE,57,5.0,7.0,74,0.00,,,0.00,0.000000,,2013-02-21 08:42:00,
2013-02-20 22:52:00,71.0,62.0,30.07,ENE,57,5.0,7.0,74,0.00,,,0.00,0.000000,,2013-02-21 08:52:00,
2013-02-20 23:01:00,71.0,62.0,30.07,ENE,57,5.0,7.0,74,0.00,,,0.00,0.000000,,2013-02-21 09:01:00,
2013-02-20 23:11:00,71.0,62.0,30.07,ENE,57,5.0,7.0,74,0.00,,,0.00,0.000000,,2013-02-21 09:11:00,
2013-02-20 23:42:00,69.0,60.0,30.07,NE,47,6.0,7.0,72,0.00,,,0.00,0.000000,,2013-02-21 09:42:00,
2013-02-20 23:52:00,69.0,60.0,30.07,NE,47,6.0,7.0,72,0.00,,,0.00,0.000000,,2013-02-21 09:52:00,